logo dgac
Viernes 19 de Octubre del 2018
Buscar por aerodromo o helipuerto
Ingrese nombre de aeródromo, localidad o designador OACI:
METAR del 19-10-2018 a las 14:00 UTC
METAR SCRD 191400Z 29005KT CAVOK 15/06 Q1018
Viento: dirección 290 grados, velocidad 5 nudos
Visibilidad: 10 km o más,
    sin nubes bajo los 5.000 pies o bajo del MSA (Mínimo de Seguridad del Aeródromo),
    sin cumulonimbus, y sin fenómenos de tiempo significativo en el aeródromo o alrededores
Temperatura: 15 °C
Rocío: 6 °C
Humedad_relativa: 55%
Presión: 1018 hPa
METAR del 19-10-2018 a las 13:00 UTC
METAR SCRD 191300Z 25003KT CAVOK 14/05 Q1018
Viento: dirección 250 grados, velocidad 3 nudos
Visibilidad: 10 km o más,
    sin nubes bajo los 5.000 pies o bajo del MSA (Mínimo de Seguridad del Aeródromo),
    sin cumulonimbus, y sin fenómenos de tiempo significativo en el aeródromo o alrededores
Temperatura: 14 °C
Rocío: 5 °C
Humedad_relativa: 55%
Presión: 1018 hPa
METAR del 19-10-2018 a las 12:00 UTC
METAR SCRD 191200Z 18005KT CAVOK 12/04 Q1017
Viento: dirección 180 grados, velocidad 5 nudos
Visibilidad: 10 km o más,
    sin nubes bajo los 5.000 pies o bajo del MSA (Mínimo de Seguridad del Aeródromo),
    sin cumulonimbus, y sin fenómenos de tiempo significativo en el aeródromo o alrededores
Temperatura: 12 °C
Rocío: 4 °C
Humedad_relativa: 58%
Presión: 1017 hPa
METAR del 18-10-2018 a las 23:00 UTC
METAR SCRD 182300Z 18006KT CAVOK 14/07 Q1019
Viento: dirección 180 grados, velocidad 6 nudos
Visibilidad: 10 km o más,
    sin nubes bajo los 5.000 pies o bajo del MSA (Mínimo de Seguridad del Aeródromo),
    sin cumulonimbus, y sin fenómenos de tiempo significativo en el aeródromo o alrededores
Temperatura: 14 °C
Rocío: 7 °C
Humedad_relativa: 63%
Presión: 1019 hPa
METAR del 18-10-2018 a las 22:00 UTC
METAR SCRD 182200Z 18012KT CAVOK 16/08 Q1018
Viento: dirección 180 grados, velocidad 12 nudos
Visibilidad: 10 km o más,
    sin nubes bajo los 5.000 pies o bajo del MSA (Mínimo de Seguridad del Aeródromo),
    sin cumulonimbus, y sin fenómenos de tiempo significativo en el aeródromo o alrededores
Temperatura: 16 °C
Rocío: 8 °C
Humedad_relativa: 59%
Presión: 1018 hPa
METAR del 18-10-2018 a las 21:00 UTC
METAR SCRD 182100Z 20010KT CAVOK 18/08 Q1018
Viento: dirección 200 grados, velocidad 10 nudos
Visibilidad: 10 km o más,
    sin nubes bajo los 5.000 pies o bajo del MSA (Mínimo de Seguridad del Aeródromo),
    sin cumulonimbus, y sin fenómenos de tiempo significativo en el aeródromo o alrededores
Temperatura: 18 °C
Rocío: 8 °C
Humedad_relativa: 52%
Presión: 1018 hPa
METAR del 18-10-2018 a las 20:00 UTC
METAR SCRD 182000Z 20014KT CAVOK 20/09 Q1018
Viento: dirección 200 grados, velocidad 14 nudos
Visibilidad: 10 km o más,
    sin nubes bajo los 5.000 pies o bajo del MSA (Mínimo de Seguridad del Aeródromo),
    sin cumulonimbus, y sin fenómenos de tiempo significativo en el aeródromo o alrededores
Temperatura: 20 °C
Rocío: 9 °C
Humedad_relativa: 49%
Presión: 1018 hPa
METAR del 18-10-2018 a las 19:00 UTC
METAR SCRD 181900Z 18010KT CAVOK 20/09 Q1018
Viento: dirección 180 grados, velocidad 10 nudos
Visibilidad: 10 km o más,
    sin nubes bajo los 5.000 pies o bajo del MSA (Mínimo de Seguridad del Aeródromo),
    sin cumulonimbus, y sin fenómenos de tiempo significativo en el aeródromo o alrededores
Temperatura: 20 °C
Rocío: 9 °C
Humedad_relativa: 49%
Presión: 1018 hPa
METAR del 18-10-2018 a las 18:00 UTC
METAR SCRD 181800Z 18010KT CAVOK 21/08 Q1018
Viento: dirección 180 grados, velocidad 10 nudos
Visibilidad: 10 km o más,
    sin nubes bajo los 5.000 pies o bajo del MSA (Mínimo de Seguridad del Aeródromo),
    sin cumulonimbus, y sin fenómenos de tiempo significativo en el aeródromo o alrededores
Temperatura: 21 °C
Rocío: 8 °C
Humedad_relativa: 43%
Presión: 1018 hPa
METAR del 18-10-2018 a las 17:00 UTC
METAR SCRD 181700Z 03004KT CAVOK 16/08 Q1018
Viento: dirección 030 grados, velocidad 4 nudos
Visibilidad: 10 km o más,
    sin nubes bajo los 5.000 pies o bajo del MSA (Mínimo de Seguridad del Aeródromo),
    sin cumulonimbus, y sin fenómenos de tiempo significativo en el aeródromo o alrededores
Temperatura: 16 °C
Rocío: 8 °C
Humedad_relativa: 59%
Presión: 1018 hPa